createdAt,value
2022-08-22T00:00:23.553Z,25.90
2022-08-22T00:03:10.107Z,25.70
2022-08-22T00:06:12.756Z,25.90
2022-08-22T00:08:53.092Z,25.90
2022-08-22T00:11:29.035Z,25.90
2022-08-22T00:14:17.829Z,25.90
2022-08-22T00:17:06.002Z,26.00
2022-08-22T00:19:53.335Z,26.00
2022-08-22T00:22:34.361Z,26.00
2022-08-22T00:25:25.754Z,26.10
2022-08-22T00:28:06.383Z,26.10
2022-08-22T00:30:40.580Z,26.10
2022-08-22T00:36:13.581Z,26.20
2022-08-22T00:38:53.995Z,26.20
2022-08-22T00:41:44.665Z,26.20
2022-08-22T00:44:30.859Z,26.30
2022-08-22T00:47:18.364Z,26.30
2022-08-22T00:50:05.860Z,26.40
2022-08-22T00:52:45.971Z,26.40
2022-08-22T00:55:26.195Z,26.50
2022-08-22T00:58:08.932Z,26.60
2022-08-22T01:00:42.952Z,26.70
2022-08-22T01:03:30.303Z,26.80
2022-08-22T01:06:17.768Z,26.90
2022-08-22T01:09:00.361Z,26.90
2022-08-22T01:11:39.605Z,27.00
2022-08-22T01:14:20.814Z,27.10
2022-08-22T01:17:15.268Z,27.10
2022-08-22T01:20:02.986Z,27.20
2022-08-22T01:22:43.284Z,27.30
2022-08-22T01:25:34.286Z,27.40
2022-08-22T01:28:24.269Z,27.50
2022-08-22T01:31:05.444Z,27.60
2022-08-22T01:33:52.837Z,27.70
2022-08-22T01:36:40.145Z,27.70
2022-08-22T01:39:20.106Z,27.80
2022-08-22T01:42:08.813Z,27.90
2022-08-22T01:44:48.806Z,27.90
2022-08-22T01:47:23.724Z,28.00
2022-08-22T01:50:11.091Z,28.00
2022-08-22T01:52:51.352Z,28.10
2022-08-22T01:55:31.780Z,28.20
2022-08-22T01:58:02.783Z,28.20
2022-08-22T02:00:35.513Z,28.20
2022-08-22T02:03:23.250Z,28.20
2022-08-22T02:05:54.136Z,28.30
2022-08-22T02:08:41.538Z,28.30
2022-08-22T02:11:12.784Z,28.30
2022-08-22T02:13:55.135Z,28.30
2022-08-22T02:16:35.132Z,28.30
2022-08-22T02:19:23.887Z,28.40
2022-08-22T02:22:02.653Z,28.40
2022-08-22T02:24:50.534Z,28.50
2022-08-22T02:27:25.253Z,28.50
2022-08-22T02:30:09.550Z,28.50
2022-08-22T02:32:50.982Z,28.40
2022-08-22T02:35:28.335Z,28.70
2022-08-22T02:38:16.037Z,28.70
2022-08-22T02:41:00.159Z,28.80
2022-08-22T02:43:34.904Z,28.80
2022-08-22T02:46:23.063Z,28.90
2022-08-22T02:49:12.568Z,28.90
2022-08-22T02:51:52.742Z,29.00
2022-08-22T02:54:28.961Z,29.10
2022-08-22T02:57:06.753Z,29.20
2022-08-22T02:59:53.322Z,29.30
2022-08-22T03:02:29.521Z,29.40
2022-08-22T03:05:01.550Z,29.40
2022-08-22T03:07:48.826Z,29.50
2022-08-22T03:10:22.928Z,29.60
2022-08-22T03:13:03.455Z,29.70
2022-08-22T03:15:49.455Z,29.70
2022-08-22T03:18:22.911Z,29.80
2022-08-22T03:21:10.428Z,30.00
2022-08-22T03:23:44.248Z,30.00
2022-08-22T03:26:23.266Z,30.00
2022-08-22T03:28:59.674Z,30.10
2022-08-22T03:31:29.712Z,30.20
2022-08-22T03:34:10.270Z,30.30
2022-08-22T03:36:38.223Z,30.40
2022-08-22T03:39:22.758Z,30.40
2022-08-22T03:42:00.121Z,30.40
2022-08-22T03:44:48.215Z,30.50
2022-08-22T03:47:35.694Z,30.60
2022-08-22T03:50:23.120Z,30.60
2022-08-22T03:53:18.527Z,30.70
2022-08-22T03:55:59.537Z,30.80
2022-08-22T03:58:39.489Z,30.90
2022-08-22T04:01:20.738Z,30.90
2022-08-22T04:04:08.332Z,30.90
2022-08-22T04:06:56.337Z,30.90
2022-08-22T04:09:44.858Z,30.90
2022-08-22T04:12:24.764Z,30.90
2022-08-22T04:15:12.164Z,31.00
2022-08-22T04:18:00.405Z,31.00
2022-08-22T04:20:48.078Z,31.00
2022-08-22T04:23:35.703Z,31.00
2022-08-22T04:26:17.796Z,31.00
2022-08-22T04:28:51.754Z,31.00
2022-08-22T04:31:25.124Z,31.00
2022-08-22T04:33:57.977Z,31.00
2022-08-22T04:36:31.900Z,31.10
2022-08-22T04:39:04.384Z,31.20
2022-08-22T04:41:47.075Z,31.20
2022-08-22T04:44:24.287Z,31.30
2022-08-22T04:46:57.614Z,31.40
2022-08-22T04:49:38.582Z,31.40
2022-08-22T04:52:29.538Z,31.50
2022-08-22T04:55:11.123Z,31.50
2022-08-22T04:57:58.751Z,31.40
2022-08-22T05:00:33.886Z,31.40
2022-08-22T05:03:03.110Z,31.30
2022-08-22T05:05:36.627Z,31.30
2022-08-22T05:08:12.258Z,31.40
2022-08-22T05:10:43.751Z,31.40
2022-08-22T05:13:15.931Z,31.50
2022-08-22T05:15:48.145Z,31.50
2022-08-22T05:18:23.505Z,31.60
2022-08-22T05:20:55.570Z,31.60
2022-08-22T05:23:31.604Z,31.60
2022-08-22T05:26:02.287Z,31.60
2022-08-22T05:28:53.066Z,31.50
2022-08-22T05:31:27.163Z,31.60
2022-08-22T05:34:01.618Z,31.60
2022-08-22T05:36:32.609Z,31.60
2022-08-22T05:39:06.527Z,31.70
2022-08-22T05:41:38.251Z,31.80
2022-08-22T05:44:09.647Z,31.80
2022-08-22T05:46:42.477Z,31.80
2022-08-22T05:49:26.678Z,31.70
2022-08-22T05:52:14.056Z,31.70
2022-08-22T05:54:50.456Z,31.70
2022-08-22T05:57:32.488Z,31.60
2022-08-22T06:00:03.377Z,31.60
2022-08-22T06:02:53.981Z,31.60
2022-08-22T06:05:33.640Z,31.50
2022-08-22T06:08:08.928Z,31.50
2022-08-22T06:10:49.837Z,31.40
2022-08-22T06:13:25.490Z,31.30
2022-08-22T06:16:06.295Z,31.30
2022-08-22T06:18:44.105Z,31.20
2022-08-22T06:21:19.647Z,31.20
2022-08-22T06:23:52.971Z,31.10
2022-08-22T06:26:25.338Z,31.10
2022-08-22T06:28:55.868Z,31.10
2022-08-22T06:31:30.251Z,31.10
2022-08-22T06:34:17.874Z,31.20
2022-08-22T06:36:52.083Z,31.20
2022-08-22T06:39:25.663Z,31.30
2022-08-22T06:41:58.424Z,31.30
2022-08-22T06:44:36.723Z,31.20
2022-08-22T06:47:12.066Z,31.30
2022-08-22T06:49:40.551Z,31.20
2022-08-22T06:52:11.985Z,31.20
2022-08-22T06:54:42.733Z,31.20
2022-08-22T06:57:25.871Z,31.20
2022-08-22T06:59:56.888Z,31.20
2022-08-22T07:02:47.211Z,31.20
2022-08-22T07:05:22.826Z,31.20
2022-08-22T07:07:51.594Z,31.30
2022-08-22T07:10:23.262Z,31.40
2022-08-22T07:12:57.416Z,31.50
2022-08-22T07:15:34.776Z,31.50
2022-08-22T07:18:10.348Z,31.60
2022-08-22T07:20:43.768Z,31.60
2022-08-22T07:23:28.664Z,31.70
2022-08-22T07:26:06.506Z,31.80
2022-08-22T07:28:51.598Z,31.80
2022-08-22T07:31:39.550Z,31.90
2022-08-22T07:34:20.972Z,31.90
2022-08-22T07:37:06.876Z,31.90
2022-08-22T07:39:44.735Z,31.90
2022-08-22T07:42:17.218Z,31.90
2022-08-22T07:45:04.663Z,31.90
2022-08-22T07:47:40.319Z,31.80
2022-08-22T07:50:08.975Z,31.80
2022-08-22T07:52:41.756Z,31.80
2022-08-22T07:55:17.651Z,31.80
2022-08-22T07:57:50.466Z,31.80
2022-08-22T08:00:20.532Z,31.70
2022-08-22T08:02:53.576Z,31.70
2022-08-22T08:05:23.980Z,31.60
2022-08-22T08:07:54.217Z,31.50
2022-08-22T08:10:31.791Z,31.60
2022-08-22T08:13:02.431Z,31.60
2022-08-22T08:15:33.292Z,31.60
2022-08-22T08:18:05.779Z,31.60
2022-08-22T08:20:36.040Z,31.60
2022-08-22T08:23:10.071Z,31.60
2022-08-22T08:25:57.556Z,31.60
2022-08-22T08:28:35.035Z,31.60
2022-08-22T08:31:09.513Z,31.60
2022-08-22T08:33:39.333Z,31.60
2022-08-22T08:36:19.328Z,31.60
2022-08-22T08:38:54.693Z,31.60
2022-08-22T08:41:38.178Z,31.60
2022-08-22T08:44:19.197Z,31.60
2022-08-22T08:47:06.531Z,31.60
2022-08-22T08:49:54.141Z,31.60
2022-08-22T08:52:41.965Z,31.50
2022-08-22T08:55:26.716Z,31.50
2022-08-22T08:58:14.837Z,31.50
2022-08-22T09:00:54.658Z,31.40
2022-08-22T09:03:37.835Z,31.40
2022-08-22T09:06:27.500Z,31.30
2022-08-22T09:09:14.840Z,31.30
2022-08-22T09:11:55.701Z,31.20
2022-08-22T09:14:46.403Z,31.20
2022-08-22T09:17:34.996Z,31.10
2022-08-22T09:20:17.893Z,31.00
2022-08-22T09:23:10.850Z,31.00
2022-08-22T09:25:57.232Z,30.90
2022-08-22T09:29:05.220Z,30.80
2022-08-22T09:31:51.903Z,30.80
2022-08-22T09:34:41.298Z,30.70
2022-08-22T09:37:20.931Z,30.70
2022-08-22T09:40:05.546Z,30.70
2022-08-22T09:42:56.183Z,30.60
2022-08-22T09:45:47.948Z,30.60
2022-08-22T09:48:23.849Z,30.50
2022-08-22T09:51:31.295Z,30.50
2022-08-22T09:54:09.926Z,30.40
2022-08-22T09:56:43.427Z,30.40
2022-08-22T09:59:23.375Z,30.30
2022-08-22T10:01:59.927Z,30.20
2022-08-22T10:04:42.134Z,30.20
2022-08-22T10:07:30.480Z,30.10
2022-08-22T10:10:10.411Z,30.10
2022-08-22T10:12:52.755Z,30.00
2022-08-22T10:15:32.760Z,29.90
2022-08-22T10:18:06.416Z,29.90
2022-08-22T10:20:58.708Z,29.90
2022-08-22T10:23:38.842Z,29.80
2022-08-22T10:26:29.473Z,29.90
2022-08-22T10:29:04.535Z,29.80
2022-08-22T10:31:58.535Z,29.80
2022-08-22T10:34:40.365Z,29.80
2022-08-22T10:37:25.420Z,29.80
2022-08-22T10:40:05.480Z,29.80
2022-08-22T10:42:36.635Z,29.80
2022-08-22T10:45:36.930Z,29.80
2022-08-22T10:48:17.817Z,29.80
2022-08-22T10:50:51.328Z,29.70
2022-08-22T10:53:32.458Z,29.70
2022-08-22T10:56:14.020Z,29.70
2022-08-22T10:58:56.409Z,29.60
2022-08-22T11:01:41.080Z,29.60
2022-08-22T11:04:28.097Z,29.60
2022-08-22T11:07:16.755Z,29.50
2022-08-22T11:09:50.495Z,29.50
2022-08-22T11:12:34.924Z,29.40
2022-08-22T11:15:16.438Z,29.40
2022-08-22T11:18:05.797Z,29.40
2022-08-22T11:20:53.407Z,29.40
2022-08-22T11:23:30.085Z,29.30
2022-08-22T11:26:33.605Z,29.30
2022-08-22T11:29:25.551Z,29.30
2022-08-22T11:32:06.265Z,29.20
2022-08-22T11:34:40.495Z,29.20
2022-08-22T11:37:24.094Z,29.20
2022-08-22T11:40:20.813Z,29.10
2022-08-22T11:42:59.013Z,29.10
2022-08-22T11:45:31.930Z,29.00
2022-08-22T11:48:19.503Z,29.00
2022-08-22T11:51:13.578Z,29.00
2022-08-22T11:53:45.810Z,28.90
2022-08-22T11:56:28.114Z,28.90
2022-08-22T11:59:02.038Z,28.90
2022-08-22T12:01:38.083Z,28.90
2022-08-22T12:04:26.341Z,28.80
2022-08-22T12:06:59.884Z,28.80
2022-08-22T12:09:32.473Z,28.80
2022-08-22T12:12:10.102Z,28.80
2022-08-22T12:14:55.537Z,28.80
2022-08-22T12:17:55.132Z,28.70
2022-08-22T12:20:36.329Z,28.70
2022-08-22T12:23:43.375Z,28.70
2022-08-22T12:26:22.128Z,28.60
2022-08-22T12:29:03.618Z,28.60
2022-08-22T12:31:45.935Z,28.60
2022-08-22T12:34:18.716Z,28.60
2022-08-22T12:36:52.569Z,28.50
2022-08-22T12:39:41.406Z,28.50
2022-08-22T12:42:28.948Z,28.50
2022-08-22T12:45:08.928Z,28.50
2022-08-22T12:47:56.449Z,28.50
2022-08-22T12:50:31.724Z,28.50
2022-08-22T12:53:11.754Z,28.40
2022-08-22T12:55:55.917Z,28.40
2022-08-22T12:58:37.118Z,28.40
2022-08-22T13:01:07.725Z,28.40
2022-08-22T13:03:39.171Z,28.30
2022-08-22T13:06:26.557Z,28.30
2022-08-22T13:08:55.756Z,28.30
2022-08-22T13:11:24.114Z,28.30
2022-08-22T13:13:57.458Z,28.30
2022-08-22T13:16:26.802Z,28.30
2022-08-22T13:18:57.783Z,28.30
2022-08-22T13:21:34.890Z,28.20
2022-08-22T13:24:10.536Z,28.20
2022-08-22T13:26:46.579Z,28.20
2022-08-22T13:29:26.191Z,28.20
2022-08-22T13:32:03.925Z,28.20
2022-08-22T13:34:45.531Z,28.20
2022-08-22T13:37:16.461Z,28.20
2022-08-22T13:39:47.009Z,28.20
2022-08-22T13:42:27.621Z,28.10
2022-08-22T13:44:59.164Z,28.10
2022-08-22T13:47:31.548Z,28.10
2022-08-22T13:50:09.923Z,28.10
2022-08-22T13:52:52.265Z,28.10
2022-08-22T13:55:31.481Z,28.10
2022-08-22T13:58:07.544Z,28.10
2022-08-22T14:00:57.234Z,28.00
2022-08-22T14:03:38.141Z,28.00
2022-08-22T14:06:35.447Z,28.00
2022-08-22T14:09:05.093Z,28.00
2022-08-22T14:11:41.311Z,28.00
2022-08-22T14:14:09.245Z,28.00
2022-08-22T14:16:45.906Z,27.90
2022-08-22T14:19:16.513Z,27.90
2022-08-22T14:21:51.445Z,27.90
2022-08-22T14:24:31.328Z,27.90
2022-08-22T14:27:06.436Z,27.90
2022-08-22T14:29:50.127Z,27.90
2022-08-22T14:32:37.917Z,27.90
2022-08-22T14:35:34.991Z,27.90
2022-08-22T14:38:18.118Z,27.90
2022-08-22T14:40:47.142Z,27.90
2022-08-22T14:43:34.516Z,27.90
2022-08-22T14:46:10.428Z,27.90
2022-08-22T14:48:50.873Z,27.90
2022-08-22T14:51:21.942Z,27.90
2022-08-22T14:53:50.455Z,27.90
2022-08-22T14:56:25.737Z,27.90
2022-08-22T14:59:03.339Z,27.90
2022-08-22T15:01:33.396Z,27.90
2022-08-22T15:04:14.645Z,27.80
2022-08-22T15:06:57.869Z,27.80
2022-08-22T15:09:31.734Z,27.80
2022-08-22T15:12:01.732Z,27.80
2022-08-22T15:14:52.233Z,27.80
2022-08-22T15:17:34.008Z,27.80
2022-08-22T15:20:27.568Z,27.80
2022-08-22T15:22:58.104Z,27.80
2022-08-22T15:25:31.931Z,27.80
2022-08-22T15:28:05.308Z,27.80
2022-08-22T15:30:37.289Z,27.80
2022-08-22T15:33:17.140Z,27.80
2022-08-22T15:35:48.412Z,27.70
2022-08-22T15:38:28.482Z,27.70
2022-08-22T15:40:58.168Z,27.70
2022-08-22T15:43:34.976Z,27.70
2022-08-22T15:46:17.939Z,27.70
2022-08-22T15:48:56.055Z,27.70
2022-08-22T15:51:42.272Z,27.70
2022-08-22T15:54:25.348Z,27.70
2022-08-22T15:57:13.888Z,27.70
2022-08-22T15:59:54.019Z,27.70
2022-08-22T16:02:42.352Z,27.70
2022-08-22T16:05:28.282Z,27.70
2022-08-22T16:08:05.757Z,27.70
2022-08-22T16:10:38.960Z,27.60
2022-08-22T16:13:26.597Z,27.60
2022-08-22T16:16:07.370Z,27.70
2022-08-22T16:18:55.589Z,27.70
2022-08-22T16:21:42.921Z,27.60
2022-08-22T16:24:30.289Z,27.70
2022-08-22T16:27:15.525Z,27.70
2022-08-22T16:29:43.431Z,27.60
2022-08-22T16:32:12.050Z,27.60
2022-08-22T16:34:41.842Z,27.60
2022-08-22T16:37:30.143Z,27.60
2022-08-22T16:40:16.809Z,27.60
2022-08-22T16:42:47.160Z,27.60
2022-08-22T16:45:19.618Z,27.60
2022-08-22T16:47:58.068Z,27.60
2022-08-22T16:50:37.595Z,27.60
2022-08-22T16:53:07.541Z,27.60
2022-08-22T16:55:39.725Z,27.60
2022-08-22T16:58:14.934Z,27.60
2022-08-22T17:00:49.698Z,27.60
2022-08-22T17:03:29.736Z,27.60
2022-08-22T17:06:17.043Z,27.60
2022-08-22T17:08:56.070Z,27.60
2022-08-22T17:11:36.879Z,27.60
2022-08-22T17:14:18.071Z,27.60
2022-08-22T17:16:58.150Z,27.60
2022-08-22T17:19:39.613Z,27.60
2022-08-22T17:22:18.462Z,27.60
2022-08-22T17:24:48.040Z,27.50
2022-08-22T17:27:30.654Z,27.50
2022-08-22T17:30:09.646Z,27.50
2022-08-22T17:32:58.972Z,27.50
2022-08-22T17:35:40.447Z,27.50
2022-08-22T17:38:27.801Z,27.50
2022-08-22T17:41:04.941Z,27.50
2022-08-22T17:43:49.350Z,27.50
2022-08-22T17:46:30.594Z,27.40
2022-08-22T17:49:03.558Z,27.50
2022-08-22T17:51:34.009Z,27.40
2022-08-22T17:54:13.991Z,27.40
2022-08-22T17:57:00.339Z,27.40
2022-08-22T17:59:46.561Z,27.40
2022-08-22T18:02:17.448Z,27.40
2022-08-22T18:04:58.282Z,27.60
2022-08-22T18:07:46.136Z,27.40
2022-08-22T18:10:33.477Z,27.40
2022-08-22T18:13:20.811Z,27.30
2022-08-22T18:15:55.403Z,27.30
2022-08-22T18:18:32.477Z,27.30
2022-08-22T18:21:04.435Z,27.30
2022-08-22T18:23:44.427Z,27.20
2022-08-22T18:26:25.498Z,27.20
2022-08-22T18:29:09.770Z,27.20
2022-08-22T18:31:41.111Z,27.20
2022-08-22T18:34:28.418Z,27.20
2022-08-22T18:37:03.044Z,27.20
2022-08-22T18:39:43.597Z,27.20
2022-08-22T18:42:22.425Z,27.20
2022-08-22T18:44:50.155Z,27.10
2022-08-22T18:47:27.756Z,27.10
2022-08-22T18:49:56.318Z,27.10
2022-08-22T18:52:42.541Z,27.10
2022-08-22T18:55:24.388Z,27.10
2022-08-22T18:58:05.074Z,27.10
2022-08-22T19:00:52.460Z,27.00
2022-08-22T19:03:33.214Z,27.00
2022-08-22T19:06:14.071Z,27.00
2022-08-22T19:08:55.123Z,26.90
2022-08-22T19:11:36.397Z,26.90
2022-08-22T19:14:21.991Z,26.90
2022-08-22T19:17:02.809Z,26.90
2022-08-22T19:20:02.354Z,26.90
2022-08-22T19:22:34.134Z,26.80
2022-08-22T19:25:09.059Z,26.80
2022-08-22T19:27:43.119Z,26.80
2022-08-22T19:30:23.378Z,26.80
2022-08-22T19:32:59.663Z,26.70
2022-08-22T19:35:40.484Z,26.70
2022-08-22T19:38:09.261Z,26.70
2022-08-22T19:40:51.632Z,26.70
2022-08-22T19:43:20.883Z,26.70
2022-08-22T19:45:50.484Z,26.70
2022-08-22T19:48:24.346Z,26.70
2022-08-22T19:51:05.624Z,26.70
2022-08-22T19:53:40.497Z,26.60
2022-08-22T19:56:20.714Z,26.60
2022-08-22T19:59:09.466Z,26.60
2022-08-22T20:01:47.624Z,26.60
2022-08-22T20:04:33.249Z,26.60
2022-08-22T20:07:14.774Z,26.60
2022-08-22T20:09:55.099Z,26.60
2022-08-22T20:12:32.216Z,26.50
2022-08-22T20:15:11.091Z,26.50
2022-08-22T20:17:40.446Z,26.50
2022-08-22T20:20:18.456Z,26.50
2022-08-22T20:22:53.822Z,26.50
2022-08-22T20:25:42.712Z,26.40
2022-08-22T20:28:27.801Z,26.40
2022-08-22T20:30:59.289Z,26.30
2022-08-22T20:33:35.266Z,26.30
2022-08-22T20:36:05.626Z,26.20
2022-08-22T20:38:40.154Z,26.20
2022-08-22T20:41:22.533Z,26.20
2022-08-22T20:44:03.408Z,26.20
2022-08-22T20:46:53.790Z,26.20
2022-08-22T20:49:25.515Z,26.30
2022-08-22T20:51:58.652Z,26.30
2022-08-22T20:54:28.015Z,26.30
2022-08-22T20:57:08.016Z,26.30
2022-08-22T20:59:37.743Z,26.30
2022-08-22T21:02:16.127Z,26.30
2022-08-22T21:04:50.110Z,26.30
2022-08-22T21:07:26.147Z,26.20
2022-08-22T21:10:07.027Z,26.30
2022-08-22T21:12:34.797Z,26.20
2022-08-22T21:15:03.429Z,26.30
2022-08-22T21:17:35.567Z,26.30
2022-08-22T21:20:19.729Z,26.30
2022-08-22T21:22:47.768Z,26.30
2022-08-22T21:25:16.426Z,26.30
2022-08-22T21:27:47.429Z,26.30
2022-08-22T21:30:22.028Z,26.30
2022-08-22T21:32:55.076Z,26.30
2022-08-22T21:35:32.395Z,26.30
2022-08-22T21:38:02.213Z,26.20
2022-08-22T21:40:37.408Z,26.20
2022-08-22T21:43:09.998Z,26.20
2022-08-22T21:45:44.589Z,26.10
2022-08-22T21:48:25.334Z,26.10
2022-08-22T21:50:53.869Z,26.10
2022-08-22T21:53:29.128Z,26.00
2022-08-22T21:56:09.997Z,26.00
2022-08-22T21:58:39.107Z,26.00
2022-08-22T22:01:19.928Z,26.00
2022-08-22T22:03:52.712Z,26.00
2022-08-22T22:06:21.236Z,26.00
2022-08-22T22:08:49.298Z,25.90
2022-08-22T22:11:17.768Z,25.90
2022-08-22T22:13:45.796Z,26.00
2022-08-22T22:16:14.200Z,25.90
2022-08-22T22:18:42.820Z,26.00
2022-08-22T22:21:11.453Z,26.00
2022-08-22T22:23:39.262Z,26.00
2022-08-22T22:26:07.359Z,26.00
2022-08-22T22:28:40.418Z,26.00
2022-08-22T22:31:08.432Z,26.00
2022-08-22T22:33:38.071Z,26.00
2022-08-22T22:36:08.466Z,26.00
2022-08-22T22:38:36.653Z,26.00
2022-08-22T22:41:04.428Z,26.00
2022-08-22T22:43:32.556Z,26.00
2022-08-22T22:46:00.307Z,26.00
2022-08-22T22:48:28.391Z,26.00
2022-08-22T22:50:56.942Z,25.90
2022-08-22T22:53:28.621Z,26.00
2022-08-22T22:56:07.366Z,25.90
2022-08-22T22:58:37.694Z,26.00
2022-08-22T23:01:10.067Z,25.90
2022-08-22T23:03:38.425Z,25.90
2022-08-22T23:06:11.467Z,25.90
2022-08-22T23:08:39.253Z,25.90
2022-08-22T23:11:26.649Z,25.90
2022-08-22T23:13:55.447Z,25.90
2022-08-22T23:16:24.702Z,25.90
2022-08-22T23:18:53.888Z,25.90
2022-08-22T23:21:23.471Z,25.90
2022-08-22T23:23:52.783Z,25.90
2022-08-22T23:26:20.541Z,26.00
2022-08-22T23:28:48.263Z,26.00
2022-08-22T23:31:18.971Z,25.90
2022-08-22T23:33:46.783Z,25.90
2022-08-22T23:36:17.192Z,25.90
2022-08-22T23:38:45.373Z,26.00
2022-08-22T23:41:14.775Z,26.00
2022-08-22T23:43:43.840Z,26.00
2022-08-22T23:46:12.400Z,26.00
2022-08-22T23:48:40.320Z,26.00
2022-08-22T23:51:11.869Z,26.10
2022-08-22T23:53:40.171Z,26.10
2022-08-22T23:56:19.732Z,26.10
2022-08-22T23:58:48.990Z,26.10
